Time;durP1;ratioP1;P1;durP2;ratioP2;P2;SDS_P1;SDS_P2;PMS_P1;PMS_P2;Temp;Humidity;BMP_temperature;BMP_pressure;BME280_temperature;BME280_humidity;BME280_pressure;Samples;Min_cycle;Max_cycle;Signal;HPM_P1;HPM_P2
2022/10/11 00:01:12;;;;;;;12.63;6.13;;;13.50;99.90;;;;;;5002798;28;20202;-72
2022/10/11 00:03:37;;;;;;;5.93;5.13;;;13.50;99.90;;;;;;5006522;28;20543;-71
2022/10/11 00:06:04;;;;;;;6.40;4.60;;;13.40;99.90;;;;;;4997318;28;20183;-72
2022/10/11 00:08:31;;;;;;;8.57;5.00;;;13.40;99.90;;;;;;5006444;28;20585;-72
2022/10/11 00:10:58;;;;;;;16.70;5.57;;;13.30;99.90;;;;;;5005036;28;20790;-73
2022/10/11 00:13:25;;;;;;;10.67;4.73;;;13.30;99.90;;;;;;5006609;28;20406;-72
2022/10/11 00:15:50;;;;;;;7.33;5.40;;;13.20;99.90;;;;;;5004854;28;20469;-72
2022/10/11 00:18:16;;;;;;;7.17;5.27;;;13.20;99.90;;;;;;5004057;28;20426;-72
2022/10/11 00:20:41;;;;;;;10.53;5.60;;;13.10;99.90;;;;;;5004945;28;20175;-72
2022/10/11 00:23:07;;;;;;;9.53;5.20;;;13.10;99.90;;;;;;5003937;28;20182;-73
2022/10/11 00:25:32;;;;;;;8.30;4.83;;;13.00;99.90;;;;;;5005110;28;20538;-72
2022/10/11 00:27:58;;;;;;;14.80;5.60;;;12.90;99.90;;;;;;5003736;28;20252;-72
2022/10/11 00:30:23;;;;;;;8.23;5.13;;;12.90;99.90;;;;;;5004454;28;20670;-73
2022/10/11 00:32:49;;;;;;;9.00;4.43;;;12.80;99.90;;;;;;5004583;28;20218;-72
2022/10/11 00:35:15;;;;;;;9.20;5.07;;;12.80;99.90;;;;;;5003619;28;20299;-71
2022/10/11 00:37:41;;;;;;;11.30;5.50;;;12.70;99.90;;;;;;5004348;28;20216;-72
2022/10/11 00:40:13;;;;;;;13.60;5.27;;;12.70;99.90;;;;;;5003299;28;20447;-71
2022/10/11 00:42:38;;;;;;;10.87;5.60;;;12.70;99.90;;;;;;5004263;28;20202;-73
2022/10/11 00:45:39;;;;;;;9.17;5.67;;;12.60;99.90;;;;;;5003046;28;20655;-72
2022/10/11 00:48:15;;;;;;;8.70;4.30;;;12.60;99.90;;;;;;5002580;28;20190;-72
2022/10/11 00:50:42;;;;;;;7.90;4.70;;;12.50;99.90;;;;;;5004628;28;20432;-72
2022/10/11 00:53:10;;;;;;;8.43;5.90;;;12.50;99.90;;;;;;5002371;28;20517;-73
2022/10/11 00:55:41;;;;;;;7.67;5.50;;;12.50;99.90;;;;;;5004165;28;21005;-72
2022/10/11 00:58:08;;;;;;;6.70;5.00;;;12.40;99.90;;;;;;5002123;28;20433;-72
2022/10/11 02:31:11;;;;;;;17.60;9.20;;;12.40;99.90;;;;;;5980123;22;20497;-69
2022/10/11 02:34:05;;;;;;;17.90;10.47;;;12.50;99.90;;;;;;5007004;28;20846;-69
2022/10/11 02:36:45;;;;;;;19.10;10.50;;;12.50;99.90;;;;;;5013530;28;20430;-72
2022/10/11 02:39:17;;;;;;;20.80;10.90;;;12.60;99.90;;;;;;5009971;28;20472;-72
2022/10/11 02:41:43;;;;;;;20.27;10.20;;;12.60;99.90;;;;;;5016911;28;20437;-72
2022/10/11 02:44:16;;;;;;;20.87;11.93;;;12.70;99.90;;;;;;5015595;28;20437;-71
2022/10/11 02:46:44;;;;;;;21.13;11.13;;;12.70;99.90;;;;;;5014092;28;20421;-72
2022/10/11 02:49:10;;;;;;;20.20;11.83;;;12.80;99.90;;;;;;5021838;28;20454;-72
2022/10/11 02:51:36;;;;;;;32.43;13.10;;;12.70;99.90;;;;;;5018356;28;21190;-75
2022/10/11 02:54:01;;;;;;;23.70;11.80;;;12.80;99.90;;;;;;5012844;28;20491;-71
2022/10/11 02:56:27;;;;;;;17.33;11.43;;;12.90;99.90;;;;;;5010428;28;20716;-72
2022/10/11 02:58:52;;;;;;;21.13;11.90;;;12.90;99.90;;;;;;5026146;28;20193;-72
2022/10/11 03:01:18;;;;;;;21.50;13.40;;;12.90;99.90;;;;;;5018396;28;20199;-73
2022/10/11 03:03:43;;;;;;;24.40;12.97;;;12.90;99.90;;;;;;5012079;28;20202;-72
2022/10/11 03:06:09;;;;;;;20.73;13.20;;;12.90;99.90;;;;;;5023523;28;20187;-72
2022/10/11 03:08:34;;;;;;;24.33;14.27;;;12.90;99.90;;;;;;5025820;28;20602;-72
2022/10/11 03:11:00;;;;;;;27.47;14.10;;;13.00;99.90;;;;;;5021504;28;20285;-72
2022/10/11 03:13:26;;;;;;;32.07;12.80;;;13.00;99.90;;;;;;5024872;28;20189;-71
2022/10/11 03:15:53;;;;;;;27.10;13.13;;;13.00;99.90;;;;;;5024449;28;20674;-72
2022/10/11 03:18:19;;;;;;;23.77;15.67;;;13.00;99.90;;;;;;5022923;28;20540;-72
2022/10/11 03:20:44;;;;;;;24.00;13.43;;;13.10;99.90;;;;;;5024911;28;20487;-72
2022/10/11 03:23:11;;;;;;;26.00;14.47;;;13.10;99.90;;;;;;5019886;28;20497;-72
2022/10/11 03:25:37;;;;;;;27.07;13.47;;;13.10;99.90;;;;;;5022372;28;20620;-73
2022/10/11 03:28:03;;;;;;;30.13;14.70;;;13.10;99.90;;;;;;5022178;28;20496;-73
2022/10/11 03:30:28;;;;;;;28.87;14.93;;;13.10;99.90;;;;;;5025465;28;20452;-71
2022/10/11 03:32:54;;;;;;;27.40;14.33;;;13.10;99.90;;;;;;5011360;28;20591;-73
2022/10/11 03:35:19;;;;;;;19.27;13.30;;;13.10;99.90;;;;;;5004525;28;20751;-72
2022/10/11 03:37:45;;;;;;;24.17;13.40;;;13.20;99.90;;;;;;5013379;28;20197;-71
2022/10/11 03:40:11;;;;;;;23.00;14.03;;;13.10;99.90;;;;;;5019999;28;20183;-73
2022/10/11 03:42:37;;;;;;;35.73;15.67;;;13.20;99.90;;;;;;5015156;28;20201;-72
2022/10/11 03:45:07;;;;;;;30.53;15.30;;;13.20;99.90;;;;;;5017512;28;20418;-71
2022/10/11 03:47:33;;;;;;;30.80;15.37;;;13.20;99.90;;;;;;5017336;28;20796;-72
2022/10/11 03:49:59;;;;;;;30.93;14.60;;;13.20;99.90;;;;;;5021128;28;20519;-70
2022/10/11 03:52:24;;;;;;;22.03;14.47;;;13.20;99.90;;;;;;5022097;28;21017;-72
2022/10/11 03:54:50;;;;;;;25.33;14.60;;;13.20;99.90;;;;;;5019152;28;20293;-72
2022/10/11 03:57:15;;;;;;;33.50;16.67;;;13.20;99.90;;;;;;5015715;28;20182;-74
2022/10/11 03:59:41;;;;;;;31.33;16.83;;;13.20;99.90;;;;;;5018774;28;20217;-72
2022/10/11 04:02:06;;;;;;;40.87;18.07;;;13.20;99.90;;;;;;5014554;28;20244;-72
2022/10/11 04:04:32;;;;;;;33.57;19.17;;;13.20;99.90;;;;;;5011809;28;20271;-73
2022/10/11 04:06:57;;;;;;;34.17;19.47;;;13.20;99.90;;;;;;5024978;28;20198;-72
2022/10/11 04:09:23;;;;;;;42.63;20.10;;;13.20;99.90;;;;;;5020995;28;21076;-73
2022/10/11 04:11:48;;;;;;;35.30;21.80;;;13.20;99.90;;;;;;5015227;28;20214;-73
2022/10/11 04:14:14;;;;;;;40.97;21.27;;;13.30;99.90;;;;;;5001792;28;20226;-73
2022/10/11 04:16:40;;;;;;;34.17;20.67;;;13.30;99.90;;;;;;5014855;28;20558;-73
2022/10/11 04:19:05;;;;;;;40.90;22.00;;;13.30;99.90;;;;;;5008902;28;20179;-73
2022/10/11 04:21:31;;;;;;;32.43;19.97;;;13.30;99.90;;;;;;5024727;28;20244;-74
2022/10/11 04:23:57;;;;;;;42.80;21.03;;;13.40;99.90;;;;;;5024800;28;20237;-73
2022/10/11 04:26:23;;;;;;;39.90;21.10;;;13.40;99.90;;;;;;5019086;28;20195;-73
2022/10/11 04:28:49;;;;;;;40.70;22.07;;;13.40;99.90;;;;;;5024497;28;20261;-73
2022/10/11 04:31:14;;;;;;;51.87;23.60;;;13.40;99.90;;;;;;5013910;28;20490;-72
2022/10/11 04:33:40;;;;;;;42.07;21.37;;;13.30;99.90;;;;;;5008104;28;20213;-74
2022/10/11 04:36:06;;;;;;;53.87;24.20;;;13.30;99.90;;;;;;5021340;28;20261;-73
2022/10/11 04:38:31;;;;;;;42.23;24.70;;;13.30;99.90;;;;;;5011436;28;20175;-73
2022/10/11 04:41:07;;;;;;;47.17;20.93;;;13.30;99.90;;;;;;5012110;28;20434;-73
2022/10/11 04:43:33;;;;;;;44.47;21.53;;;13.20;99.90;;;;;;4999102;28;20181;-74
2022/10/11 04:45:58;;;;;;;45.90;21.70;;;13.20;99.90;;;;;;5020917;28;20861;-75
2022/10/11 04:48:24;;;;;;;48.93;22.97;;;13.20;99.90;;;;;;5023021;28;20271;-73
2022/10/11 04:50:49;;;;;;;40.53;22.00;;;13.10;99.90;;;;;;5015915;28;20209;-73
2022/10/11 04:53:15;;;;;;;44.37;21.30;;;13.10;99.90;;;;;;5019080;28;20186;-74
2022/10/11 04:55:41;;;;;;;43.33;21.87;;;13.10;99.90;;;;;;5020729;28;20268;-74
2022/10/11 04:58:06;;;;;;;39.10;21.37;;;13.10;99.90;;;;;;5020967;28;20183;-72
2022/10/11 05:00:32;;;;;;;40.83;22.93;;;13.10;99.90;;;;;;5019320;28;20616;-73
2022/10/11 05:02:57;;;;;;;43.23;22.83;;;13.10;99.90;;;;;;5016215;28;20189;-74
2022/10/11 05:05:23;;;;;;;51.27;23.20;;;13.10;99.90;;;;;;5026623;28;20181;-73
2022/10/11 05:07:48;;;;;;;68.30;24.50;;;13.10;99.90;;;;;;5020227;28;20662;-73
2022/10/11 05:10:14;;;;;;;50.40;24.27;;;13.20;99.90;;;;;;5017947;28;20197;-75
2022/10/11 05:12:40;;;;;;;41.57;21.43;;;13.20;99.90;;;;;;5005065;28;20210;-74
2022/10/11 05:15:06;;;;;;;50.63;24.73;;;13.20;99.90;;;;;;5013172;28;20222;-73
2022/10/11 05:17:31;;;;;;;47.30;22.23;;;13.20;99.90;;;;;;5008006;28;20287;-73
2022/10/11 05:19:57;;;;;;;45.27;23.60;;;13.20;99.90;;;;;;5011999;28;20516;-73
2022/10/11 05:22:22;;;;;;;46.30;22.23;;;13.30;99.90;;;;;;5009638;28;20206;-72
2022/10/11 05:24:48;;;;;;;37.03;23.20;;;13.20;99.90;;;;;;5003967;28;20202;-72
2022/10/11 05:27:13;;;;;;;40.27;19.60;;;13.30;99.90;;;;;;5001926;28;20732;-70
2022/10/11 05:29:39;;;;;;;46.90;23.03;;;13.30;99.90;;;;;;5009718;28;20194;-70
2022/10/11 05:32:05;;;;;;;45.57;24.37;;;13.30;99.90;;;;;;5011697;28;20218;-69
2022/10/11 05:34:30;;;;;;;44.70;24.60;;;13.30;99.90;;;;;;5018982;28;20278;-70
2022/10/11 05:36:56;;;;;;;43.53;22.70;;;13.30;99.90;;;;;;5017606;28;20178;-71
2022/10/11 05:39:21;;;;;;;49.33;22.63;;;13.30;99.90;;;;;;5012351;28;20178;-70
2022/10/11 05:41:47;;;;;;;38.53;22.60;;;13.40;99.90;;;;;;5010890;28;20211;-71
2022/10/11 05:44:12;;;;;;;38.37;21.27;;;13.40;99.90;;;;;;5014113;28;20191;-70
2022/10/11 05:46:38;;;;;;;39.13;22.47;;;13.40;99.90;;;;;;5010208;28;20225;-70
2022/10/11 05:49:03;;;;;;;44.87;22.00;;;13.40;99.90;;;;;;5023090;28;20194;-70
2022/10/11 05:51:29;;;;;;;35.50;22.00;;;13.50;99.90;;;;;;5015918;28;20214;-72
2022/10/11 05:53:55;;;;;;;45.40;20.97;;;13.40;99.90;;;;;;5012111;28;20565;-72
2022/10/11 05:56:22;;;;;;;36.00;20.90;;;13.50;99.90;;;;;;5008813;28;20241;-72
2022/10/11 05:58:48;;;;;;;39.20;19.30;;;13.50;99.90;;;;;;5022840;28;20182;-72
2022/10/11 06:01:19;;;;;;;38.83;21.07;;;13.40;99.90;;;;;;5019120;28;20444;-72
2022/10/11 06:03:45;;;;;;;41.07;21.70;;;13.40;99.90;;;;;;5011919;28;20475;-72
2022/10/11 06:06:11;;;;;;;42.80;21.47;;;13.50;99.90;;;;;;5020440;28;20430;-72
2022/10/11 06:08:36;;;;;;;39.10;18.23;;;13.50;99.90;;;;;;5022644;28;20189;-72
2022/10/11 06:11:10;;;;;;;39.47;23.00;;;13.50;99.90;;;;;;5008993;28;20207;-72
2022/10/11 06:13:35;;;;;;;27.57;19.43;;;13.50;99.90;;;;;;4996943;28;20175;-72
2022/10/11 06:16:03;;;;;;;34.47;20.87;;;13.50;99.90;;;;;;5019385;28;20464;-71
2022/10/11 06:18:29;;;;;;;40.17;20.73;;;13.50;99.90;;;;;;5022629;28;20182;-72
2022/10/11 06:20:57;;;;;;;37.33;21.07;;;13.50;99.90;;;;;;5009703;28;20477;-72
2022/10/11 06:23:22;;;;;;;39.23;19.60;;;13.60;99.90;;;;;;5022479;28;20421;-72
2022/10/11 06:26:05;;;;;;;40.70;19.43;;;13.60;99.90;;;;;;5013894;28;20476;-73
2022/10/11 06:28:32;;;;;;;34.00;19.13;;;13.60;99.90;;;;;;5015789;28;20230;-72
2022/10/11 06:30:58;;;;;;;36.60;19.57;;;13.50;99.90;;;;;;5023036;28;20438;-72
2022/10/11 06:33:23;;;;;;;30.30;19.63;;;13.50;99.90;;;;;;5024352;28;20421;-71
2022/10/11 06:35:49;;;;;;;28.50;19.20;;;13.50;99.90;;;;;;5012033;28;20600;-72
2022/10/11 06:38:15;;;;;;;40.77;21.90;;;13.50;99.90;;;;;;5020699;28;20178;-72
2022/10/11 06:40:41;;;;;;;29.17;19.50;;;13.50;99.90;;;;;;5013355;28;20196;-71
2022/10/11 06:43:06;;;;;;;31.37;18.57;;;13.50;99.90;;;;;;5018442;28;20550;-72
2022/10/11 06:45:32;;;;;;;36.33;18.73;;;13.50;99.90;;;;;;5015722;28;20912;-72
2022/10/11 06:47:57;;;;;;;32.73;18.50;;;13.50;99.90;;;;;;5017325;28;20191;-71
2022/10/11 06:50:23;;;;;;;33.27;19.57;;;13.60;99.90;;;;;;5017339;28;20187;-72
2022/10/11 06:52:48;;;;;;;31.43;18.23;;;13.60;99.90;;;;;;5015659;28;20211;-72
2022/10/11 06:55:14;;;;;;;41.50;21.40;;;13.60;99.90;;;;;;5017055;28;20249;-71
2022/10/11 06:57:39;;;;;;;31.43;19.87;;;13.60;99.90;;;;;;5013180;28;20185;-71
2022/10/11 07:00:06;;;;;;;40.70;18.60;;;13.60;99.90;;;;;;5025819;28;20228;-73
2022/10/11 07:02:31;;;;;;;34.93;19.07;;;13.60;99.90;;;;;;5019979;28;20213;-72
2022/10/11 07:04:57;;;;;;;37.93;18.57;;;13.60;99.90;;;;;;5025782;28;20511;-72
2022/10/11 07:07:23;;;;;;;36.63;19.93;;;13.70;99.90;;;;;;5020801;28;20191;-71
2022/10/11 07:09:48;;;;;;;41.90;20.83;;;13.80;99.90;;;;;;5014351;28;20686;-71
2022/10/11 07:12:15;;;;;;;38.70;18.43;;;13.80;99.90;;;;;;5009910;28;20214;-70
2022/10/11 07:14:40;;;;;;;34.53;18.57;;;13.80;99.90;;;;;;5025555;28;20618;-70
2022/10/11 07:17:06;;;;;;;36.63;18.97;;;13.80;99.90;;;;;;5021935;28;20485;-70
2022/10/11 07:19:31;;;;;;;35.00;19.33;;;13.90;99.90;;;;;;5012778;28;20185;-70
2022/10/11 07:21:57;;;;;;;33.00;19.83;;;13.90;99.90;;;;;;5007539;28;20230;-70
2022/10/11 07:24:23;;;;;;;36.47;19.60;;;13.90;99.90;;;;;;5024430;28;20560;-70
2022/10/11 07:26:48;;;;;;;32.53;18.70;;;13.90;99.90;;;;;;5013497;28;20589;-70
2022/10/11 07:29:14;;;;;;;33.50;18.93;;;14.00;99.90;;;;;;5022857;28;20191;-70
2022/10/11 07:31:41;;;;;;;35.33;19.50;;;14.00;99.90;;;;;;5025517;28;20244;-71
2022/10/11 07:34:07;;;;;;;35.27;18.13;;;14.00;99.90;;;;;;5011432;28;20297;-70
2022/10/11 07:36:33;;;;;;;30.57;18.20;;;14.00;99.90;;;;;;5007070;28;20493;-70
2022/10/11 07:38:59;;;;;;;29.00;18.63;;;14.10;99.90;;;;;;5022048;28;20174;-71
2022/10/11 07:41:24;;;;;;;28.10;18.50;;;14.00;99.90;;;;;;5024291;28;20245;-71
2022/10/11 07:43:50;;;;;;;29.73;16.63;;;14.10;99.90;;;;;;5015336;28;20211;-71
2022/10/11 07:46:17;;;;;;;29.97;16.80;;;14.20;99.90;;;;;;5021172;28;20175;-71
2022/10/11 07:48:42;;;;;;;29.27;17.77;;;14.20;99.90;;;;;;5016090;28;20181;-71
2022/10/11 07:51:19;;;;;;;26.00;17.57;;;14.20;99.90;;;;;;5019065;28;20532;-71
2022/10/11 07:53:47;;;;;;;35.60;17.70;;;14.20;99.90;;;;;;5014520;28;20706;-71
2022/10/11 07:56:18;;;;;;;29.83;17.70;;;14.30;99.90;;;;;;5022611;28;20496;-71
2022/10/11 07:58:50;;;;;;;28.10;16.20;;;14.30;99.90;;;;;;5014219;28;20932;-71
2022/10/11 08:01:16;;;;;;;31.97;18.03;;;14.40;99.90;;;;;;5020229;28;20524;-71
2022/10/11 08:03:41;;;;;;;46.07;17.67;;;14.40;99.90;;;;;;5016219;28;20524;-71
2022/10/11 08:06:08;;;;;;;37.73;15.90;;;14.40;99.90;;;;;;5021232;28;20496;-71
2022/10/11 08:08:34;;;;;;;37.67;16.10;;;14.40;99.90;;;;;;5015504;28;20178;-71
2022/10/11 08:11:00;;;;;;;23.27;16.03;;;14.30;99.90;;;;;;5016522;28;20826;-71
2022/10/11 08:13:26;;;;;;;28.87;16.97;;;14.30;99.90;;;;;;5016544;28;20417;-71
2022/10/11 08:15:52;;;;;;;24.97;15.57;;;14.30;99.90;;;;;;5015405;28;20206;-71
2022/10/11 08:18:17;;;;;;;29.60;16.03;;;14.30;99.90;;;;;;5015950;28;20413;-70
2022/10/11 08:20:43;;;;;;;35.27;18.00;;;14.30;99.90;;;;;;5012930;28;20650;-71
2022/10/11 08:23:09;;;;;;;29.27;17.73;;;14.30;99.90;;;;;;5024238;28;20190;-71
2022/10/11 08:25:41;;;;;;;29.73;15.40;;;14.30;99.90;;;;;;5019661;28;20230;-71
2022/10/11 08:28:08;;;;;;;33.13;18.77;;;14.30;99.90;;;;;;5013947;28;20845;-70
2022/10/11 08:30:34;;;;;;;37.97;18.80;;;14.30;99.90;;;;;;5011669;28;20424;-70
2022/10/11 08:33:00;;;;;;;28.50;16.47;;;14.40;99.90;;;;;;5024350;28;20440;-71
2022/10/11 08:35:25;;;;;;;32.83;17.47;;;14.40;99.90;;;;;;5019347;28;20977;-71
2022/10/11 08:37:51;;;;;;;33.07;18.50;;;14.40;99.90;;;;;;5013598;28;20209;-71
2022/10/11 08:40:20;;;;;;;30.50;17.20;;;14.50;99.90;;;;;;5009016;28;20213;-71
2022/10/11 08:42:59;;;;;;;26.30;16.20;;;14.50;99.90;;;;;;5024103;28;20205;-71
2022/10/11 08:45:34;;;;;;;27.80;16.70;;;14.50;99.90;;;;;;5017845;28;20945;-71
2022/10/11 08:48:11;;;;;;;24.10;17.53;;;14.50;99.90;;;;;;5011886;28;20421;-70
2022/10/11 08:50:37;;;;;;;25.80;15.83;;;14.60;99.90;;;;;;5017160;28;20436;-71
2022/10/11 08:53:35;;;;;;;29.53;17.03;;;14.60;99.90;;;;;;5012067;28;20418;-71
2022/10/11 08:56:02;;;;;;;27.83;17.73;;;14.60;99.90;;;;;;5013672;28;20552;-71
2022/10/11 08:59:01;;;;;;;39.63;16.20;;;14.60;99.90;;;;;;5009661;28;20412;-71
2022/10/11 09:01:28;;;;;;;29.27;16.80;;;14.70;99.90;;;;;;5015046;28;20452;-71
2022/10/11 09:03:54;;;;;;;26.63;17.63;;;14.70;99.90;;;;;;5007503;28;20410;-70
2022/10/11 09:06:27;;;;;;;26.70;16.10;;;14.70;99.90;;;;;;5021816;28;20504;-71
2022/10/11 09:09:24;;;;;;;30.60;15.90;;;14.80;99.90;;;;;;5009181;28;20465;-71
2022/10/11 09:12:04;;;;;;;28.00;16.67;;;14.70;99.90;;;;;;5020382;28;20437;-71
2022/10/11 09:14:50;;;;;;;25.70;18.23;;;14.70;99.90;;;;;;5023881;28;20803;-71
2022/10/11 09:17:37;;;;;;;30.50;16.87;;;14.60;99.90;;;;;;5016601;28;20784;-71
2022/10/11 09:20:03;;;;;;;25.33;17.57;;;14.70;99.90;;;;;;5008865;28;20493;-71
2022/10/11 09:22:47;;;;;;;36.77;17.33;;;14.60;99.90;;;;;;5023058;28;20518;-71
2022/10/11 09:25:21;;;;;;;30.73;17.27;;;14.60;99.90;;;;;;5021589;28;20185;-71
2022/10/11 09:27:53;;;;;;;25.83;18.03;;;14.60;99.90;;;;;;5014131;28;20486;-70
2022/10/11 09:30:19;;;;;;;32.50;17.27;;;14.70;99.90;;;;;;5009956;28;20421;-71
2022/10/11 09:32:53;;;;;;;47.30;17.70;;;14.70;99.90;;;;;;5023391;28;20500;-71
2022/10/11 09:35:21;;;;;;;29.47;16.90;;;14.80;99.90;;;;;;5020592;28;20489;-70
2022/10/11 09:38:26;;;;;;;26.27;17.40;;;14.70;99.90;;;;;;5023427;28;20413;-71
2022/10/11 09:41:16;;;;;;;29.30;18.13;;;14.80;99.90;;;;;;5013136;28;20623;-71
2022/10/11 09:43:51;;;;;;;30.53;16.60;;;14.90;99.90;;;;;;5016937;28;20424;-72
2022/10/11 09:46:28;;;;;;;32.70;17.90;;;15.00;99.90;;;;;;5019280;28;20443;-71
2022/10/11 09:48:55;;;;;;;30.57;17.67;;;15.00;99.90;;;;;;5006632;28;20505;-70
2022/10/11 09:51:24;;;;;;;26.67;16.73;;;15.00;99.90;;;;;;5025549;28;20440;-71
2022/10/11 09:53:56;;;;;;;30.60;15.83;;;15.00;99.90;;;;;;5019724;28;20456;-71
2022/10/11 09:56:23;;;;;;;32.10;16.20;;;15.00;99.90;;;;;;5019744;28;20780;-70
2022/10/11 09:59:10;;;;;;;27.03;16.23;;;15.10;99.90;;;;;;5005719;28;20419;-71
2022/10/11 10:01:36;;;;;;;28.90;15.83;;;15.10;99.90;;;;;;5013439;28;20784;-71
2022/10/11 10:04:07;;;;;;;22.80;16.20;;;15.10;99.90;;;;;;5019911;28;20423;-71
2022/10/11 10:06:33;;;;;;;31.77;16.10;;;15.10;99.90;;;;;;5013107;28;20175;-71
2022/10/11 10:09:19;;;;;;;25.50;15.17;;;15.10;99.90;;;;;;5019802;28;20917;-71
2022/10/11 10:11:45;;;;;;;24.93;15.03;;;15.20;99.90;;;;;;5015098;28;20229;-71
2022/10/11 10:14:24;;;;;;;27.13;14.67;;;15.20;99.90;;;;;;5020238;28;20989;-70
2022/10/11 10:17:05;;;;;;;18.73;13.43;;;15.20;99.90;;;;;;5015547;28;20192;-71
2022/10/11 10:19:38;;;;;;;24.43;13.93;;;15.40;99.90;;;;;;4997157;28;20500;-71
2022/10/11 10:22:05;;;;;;;25.57;15.10;;;15.40;99.90;;;;;;5019436;28;20866;-70
2022/10/11 10:24:37;;;;;;;23.07;13.63;;;15.50;99.90;;;;;;4996317;28;20824;-71
2022/10/11 10:27:09;;;;;;;22.33;15.30;;;15.50;99.90;;;;;;5019547;28;20772;-70
2022/10/11 10:29:35;;;;;;;28.07;15.10;;;15.50;99.90;;;;;;4995873;28;20442;-70
2022/10/11 10:32:23;;;;;;;23.23;14.90;;;15.60;99.90;;;;;;5019196;28;20468;-71
2022/10/11 10:35:07;;;;;;;17.80;13.10;;;15.60;99.90;;;;;;4997597;28;21083;-69
2022/10/11 10:37:41;;;;;;;25.17;15.20;;;15.70;99.90;;;;;;5000489;28;20418;-70
2022/10/11 10:40:14;;;;;;;27.77;13.40;;;15.70;99.90;;;;;;5019385;28;20822;-70
2022/10/11 10:42:40;;;;;;;25.03;13.20;;;15.70;99.90;;;;;;5022691;28;20443;-71
2022/10/11 10:45:13;;;;;;;22.87;14.63;;;15.70;99.90;;;;;;5016290;28;21222;-70
2022/10/11 10:48:11;;;;;;;25.27;14.40;;;15.80;99.90;;;;;;5007891;28;20190;-71
2022/10/11 10:50:59;;;;;;;24.80;14.87;;;15.80;99.90;;;;;;5013537;28;20428;-71
2022/10/11 10:53:38;;;;;;;21.13;13.60;;;15.80;99.90;;;;;;5010752;28;20436;-71
2022/10/11 10:56:14;;;;;;;25.23;15.10;;;15.80;99.90;;;;;;5022747;28;20875;-71
2022/10/11 10:59:06;;;;;;;23.27;14.60;;;15.80;99.90;;;;;;5017465;28;20429;-71
2022/10/11 11:01:36;;;;;;;22.00;13.60;;;15.90;99.90;;;;;;5015707;28;21013;-71
2022/10/11 11:04:34;;;;;;;18.37;12.60;;;15.90;99.90;;;;;;5027369;28;20415;-71
2022/10/11 11:07:28;;;;;;;17.23;13.20;;;15.90;99.90;;;;;;4971437;28;20936;-71
2022/10/11 11:10:01;;;;;;;25.07;13.50;;;16.00;99.90;;;;;;5016700;28;20413;-71
2022/10/11 11:12:43;;;;;;;22.47;13.23;;;16.10;99.90;;;;;;5026380;28;20432;-70
2022/10/11 11:15:36;;;;;;;19.40;13.20;;;16.00;99.90;;;;;;5017930;28;20537;-70
2022/10/11 11:18:27;;;;;;;26.60;13.70;;;16.00;99.90;;;;;;4992974;28;20452;-71
2022/10/11 11:21:37;;;;;;;18.17;11.93;;;16.10;99.90;;;;;;5008646;28;20794;-71
2022/10/11 11:24:16;;;;;;;21.30;12.57;;;16.10;99.90;;;;;;4991690;28;20454;-71
2022/10/11 11:27:00;;;;;;;21.53;11.83;;;16.10;99.90;;;;;;5018014;28;20409;-71
2022/10/11 11:29:53;;;;;;;22.30;13.50;;;15.90;99.90;;;;;;5024696;28;20416;-71
2022/10/11 11:32:33;;;;;;;23.70;12.80;;;15.90;99.90;;;;;;5011891;28;20450;-70
2022/10/11 11:35:13;;;;;;;20.03;12.53;;;15.90;99.90;;;;;;5006465;28;20469;-71
2022/10/11 11:37:41;;;;;;;17.80;12.13;;;16.10;99.90;;;;;;5005096;28;20497;-71
2022/10/11 11:40:17;;;;;;;23.67;13.23;;;16.20;99.90;;;;;;5007048;28;20433;-71
2022/10/11 11:43:03;;;;;;;17.87;12.20;;;16.20;99.90;;;;;;5025485;28;20436;-71
2022/10/11 11:45:50;;;;;;;24.07;12.30;;;16.30;99.90;;;;;;5016710;28;20444;-71
2022/10/11 11:48:25;;;;;;;16.57;11.83;;;16.30;99.90;;;;;;5009683;28;20433;-68
2022/10/11 11:51:08;;;;;;;24.53;12.20;;;16.30;99.90;;;;;;5011054;28;20993;-71
2022/10/11 11:53:45;;;;;;;22.13;12.53;;;16.20;99.90;;;;;;5019553;28;20414;-71
2022/10/11 11:56:37;;;;;;;15.23;11.43;;;16.20;99.90;;;;;;5017043;28;20809;-71
2022/10/11 11:59:11;;;;;;;22.67;12.80;;;16.10;99.90;;;;;;5017907;28;20405;-70
2022/10/11 12:01:45;;;;;;;21.33;12.40;;;16.00;99.90;;;;;;5017154;28;20438;-71
2022/10/11 12:04:36;;;;;;;19.10;12.80;;;16.00;99.90;;;;;;5029208;28;20424;-71
2022/10/11 12:07:12;;;;;;;14.40;11.60;;;16.10;99.90;;;;;;5021617;28;20414;-71
2022/10/11 12:09:40;;;;;;;21.43;12.90;;;16.10;99.90;;;;;;5014880;28;20536;-71
2022/10/11 12:12:07;;;;;;;27.60;13.20;;;16.00;99.90;;;;;;5018673;28;20495;-71
2022/10/11 12:14:33;;;;;;;26.87;13.27;;;16.00;99.90;;;;;;5023370;28;20464;-71
2022/10/11 12:17:11;;;;;;;23.03;12.53;;;15.90;99.90;;;;;;5006886;28;20484;-71
2022/10/11 12:19:40;;;;;;;28.03;11.80;;;15.90;99.90;;;;;;5014961;28;20647;-71
2022/10/11 12:22:38;;;;;;;22.70;12.80;;;15.90;99.90;;;;;;5018137;28;20844;-71
2022/10/11 12:25:09;;;;;;;18.70;12.10;;;15.90;99.90;;;;;;5003987;28;20521;-71
2022/10/11 12:27:41;;;;;;;16.17;10.67;;;16.10;99.90;;;;;;5000531;28;20801;-71
2022/10/11 12:30:47;;;;;;;28.50;11.20;;;16.20;99.90;;;;;;5021088;28;20786;-70
2022/10/11 12:33:31;;;;;;;17.67;11.67;;;16.20;99.90;;;;;;5020727;28;20987;-71
2022/10/11 12:35:56;;;;;;;23.20;10.77;;;16.30;99.90;;;;;;5013410;28;20471;-70
2022/10/11 12:38:38;;;;;;;17.77;10.90;;;16.30;99.90;;;;;;5010123;28;20421;-70
2022/10/11 12:41:15;;;;;;;16.87;10.63;;;16.30;99.90;;;;;;5024320;28;20194;-71
2022/10/11 12:43:47;;;;;;;16.80;10.90;;;16.20;99.90;;;;;;5012054;28;20785;-70
2022/10/11 12:46:28;;;;;;;12.93;11.17;;;16.30;99.90;;;;;;5014524;28;20417;-71
2022/10/11 12:49:12;;;;;;;20.40;10.80;;;16.20;99.90;;;;;;5014043;28;20520;-71
2022/10/11 12:51:48;;;;;;;23.20;11.03;;;16.10;99.90;;;;;;5017454;28;20445;-71
2022/10/11 12:54:38;;;;;;;18.03;11.07;;;16.10;99.90;;;;;;5019204;28;20656;-71
2022/10/11 12:57:34;;;;;;;15.70;10.57;;;16.00;99.90;;;;;;5014130;28;20446;-72
2022/10/11 13:00:19;;;;;;;9.93;8.90;;;16.10;99.90;;;;;;5007597;28;20576;-71
2022/10/11 13:02:46;;;;;;;19.77;11.37;;;16.10;99.90;;;;;;5010577;28;20444;-73
2022/10/11 13:05:25;;;;;;;12.80;10.17;;;16.10;99.90;;;;;;5009427;28;20469;-72
2022/10/11 13:07:53;;;;;;;19.70;10.10;;;16.00;99.90;;;;;;5015491;28;20492;-72
2022/10/11 13:10:26;;;;;;;21.03;11.07;;;15.90;99.90;;;;;;5017523;28;21188;-72
2022/10/11 13:12:53;;;;;;;29.30;11.50;;;15.80;99.90;;;;;;5022189;28;20969;-72
2022/10/11 13:15:21;;;;;;;19.27;9.60;;;15.80;99.90;;;;;;5018895;28;20823;-72
2022/10/11 13:17:53;;;;;;;23.30;10.87;;;15.80;99.90;;;;;;5012771;28;20434;-72
2022/10/11 13:20:22;;;;;;;19.10;10.03;;;15.80;99.90;;;;;;5014034;28;20444;-71
2022/10/11 13:22:53;;;;;;;13.80;8.90;;;15.80;99.90;;;;;;5012301;28;20438;-71
2022/10/11 13:25:23;;;;;;;15.50;10.23;;;15.80;99.90;;;;;;5012957;28;20494;-71
2022/10/11 13:27:51;;;;;;;13.03;10.63;;;15.90;99.90;;;;;;5011876;28;20456;-71
2022/10/11 13:30:24;;;;;;;16.73;9.90;;;15.90;99.90;;;;;;5012157;28;20953;-71
2022/10/11 13:32:51;;;;;;;14.93;9.23;;;16.00;99.90;;;;;;5010819;28;20477;-71
2022/10/11 13:35:24;;;;;;;20.93;10.00;;;16.00;99.90;;;;;;5012213;28;20555;-71
2022/10/11 13:37:49;;;;;;;15.47;9.40;;;16.00;99.90;;;;;;5011235;28;20527;-71
2022/10/11 13:40:17;;;;;;;11.27;9.47;;;16.10;99.90;;;;;;5012564;28;20837;-71
2022/10/11 13:42:43;;;;;;;13.00;9.20;;;16.10;99.90;;;;;;5019260;28;20296;-71
2022/10/11 13:45:12;;;;;;;19.77;9.37;;;16.20;99.90;;;;;;5019305;28;20452;-71
2022/10/11 13:47:38;;;;;;;17.10;9.20;;;16.20;99.90;;;;;;5012344;28;20432;-71
2022/10/11 13:50:09;;;;;;;22.17;8.93;;;16.40;99.90;;;;;;5006521;28;20425;-71
2022/10/11 13:52:46;;;;;;;15.33;9.33;;;16.50;99.90;;;;;;5004732;28;20851;-71
2022/10/11 13:55:21;;;;;;;15.83;8.83;;;16.60;99.90;;;;;;5006956;28;20492;-72
2022/10/11 13:57:50;;;;;;;12.03;8.67;;;16.70;99.90;;;;;;5023290;28;20487;-71
2022/10/11 14:00:16;;;;;;;15.57;8.70;;;16.70;99.90;;;;;;5003613;28;20435;-71
2022/10/11 14:02:56;;;;;;;15.70;9.23;;;16.70;99.90;;;;;;5023041;28;20951;-72
2022/10/11 14:05:33;;;;;;;19.03;9.43;;;16.60;99.90;;;;;;5017363;28;20179;-70
2022/10/11 14:08:02;;;;;;;21.90;9.33;;;16.60;99.90;;;;;;5011138;28;20485;-71
2022/10/11 14:10:28;;;;;;;18.53;9.17;;;16.50;99.90;;;;;;5008155;28;20444;-71
2022/10/11 14:13:00;;;;;;;19.80;10.40;;;16.50;99.90;;;;;;5022783;28;20436;-70
2022/10/11 14:15:36;;;;;;;18.03;9.93;;;16.50;99.90;;;;;;5016498;28;20476;-70
2022/10/11 14:18:40;;;;;;;21.97;9.93;;;16.50;99.90;;;;;;5011030;28;20414;-71